createdAt,value
2017-07-12T00:01:27.148Z,97.60
2017-07-12T00:03:54.775Z,97.60
2017-07-12T00:06:23.277Z,97.50
2017-07-12T00:08:50.855Z,97.60
2017-07-12T00:11:18.398Z,97.70
2017-07-12T00:13:45.963Z,97.70
2017-07-12T00:16:13.490Z,97.60
2017-07-12T00:18:41.053Z,97.60
2017-07-12T00:21:08.577Z,97.50
2017-07-12T00:23:36.139Z,97.50
2017-07-12T00:26:03.697Z,97.30
2017-07-12T00:28:31.275Z,97.30
2017-07-12T00:30:58.820Z,97.20
2017-07-12T00:33:26.401Z,97.30
2017-07-12T00:35:53.946Z,97.40
2017-07-12T00:38:21.539Z,97.50
2017-07-12T00:40:49.074Z,97.50
2017-07-12T00:43:16.637Z,97.70
2017-07-12T00:45:44.173Z,97.70
2017-07-12T00:48:11.755Z,97.60
2017-07-12T00:50:39.287Z,97.50
2017-07-12T00:53:06.879Z,97.60
2017-07-12T00:55:34.405Z,97.70
2017-07-12T00:58:01.977Z,97.80
2017-07-12T01:00:29.522Z,97.80
2017-07-12T01:02:57.091Z,97.80
2017-07-12T01:05:24.639Z,97.90
2017-07-12T01:07:52.232Z,97.80
2017-07-12T01:10:19.757Z,97.70
2017-07-12T01:12:47.724Z,97.50
2017-07-12T01:15:15.256Z,97.50
2017-07-12T01:17:42.838Z,97.60
2017-07-12T01:20:10.402Z,97.80
2017-07-12T01:22:38.383Z,97.90
2017-07-12T01:25:05.907Z,97.90
2017-07-12T01:27:33.432Z,97.90
2017-07-12T01:30:00.993Z,97.60
2017-07-12T01:32:28.519Z,97.60
2017-07-12T01:34:56.090Z,97.70
2017-07-12T01:37:23.645Z,97.50
2017-07-12T01:39:51.228Z,97.70
2017-07-12T01:42:18.755Z,97.50
2017-07-12T01:44:46.312Z,97.00
2017-07-12T01:47:13.854Z,97.40
2017-07-12T01:49:41.820Z,97.30
2017-07-12T01:52:09.744Z,97.00
2017-07-12T01:54:37.314Z,97.00
2017-07-12T01:57:04.849Z,97.20
2017-07-12T01:59:32.408Z,97.30
2017-07-12T02:01:59.943Z,97.30
2017-07-12T02:04:27.504Z,97.40
2017-07-12T02:06:55.028Z,97.70
2017-07-12T02:09:22.998Z,98.00
2017-07-12T02:11:50.933Z,97.80
2017-07-12T02:14:18.509Z,97.80
2017-07-12T02:16:46.049Z,97.10
2017-07-12T02:19:13.617Z,97.50
2017-07-12T02:21:41.165Z,97.50
2017-07-12T02:24:08.719Z,97.50
2017-07-12T02:26:36.276Z,97.30
2017-07-12T02:29:03.844Z,97.20
2017-07-12T02:31:31.392Z,97.10
2017-07-12T02:33:58.967Z,97.30
2017-07-12T02:36:26.519Z,97.40
2017-07-12T02:38:54.336Z,97.50
2017-07-12T02:41:21.883Z,97.60
2017-07-12T02:43:49.457Z,97.70
2017-07-12T02:46:17.009Z,97.80
2017-07-12T02:48:44.569Z,97.70
2017-07-12T02:51:12.112Z,97.50
2017-07-12T02:53:39.670Z,97.50
2017-07-12T02:56:07.602Z,97.50
2017-07-12T02:58:35.187Z,97.50
2017-07-12T03:01:02.719Z,97.30
2017-07-12T03:03:30.274Z,97.40
2017-07-12T03:05:57.807Z,97.30
2017-07-12T03:08:25.398Z,97.40
2017-07-12T03:10:52.958Z,97.30
2017-07-12T03:13:20.508Z,97.30
2017-07-12T03:15:48.061Z,97.40
2017-07-12T03:18:15.600Z,97.30
2017-07-12T03:20:43.157Z,97.20
2017-07-12T03:23:10.695Z,97.50
2017-07-12T03:25:38.246Z,97.50
2017-07-12T03:28:05.787Z,97.60
2017-07-12T03:30:33.366Z,96.90
2017-07-12T03:33:00.916Z,97.00
2017-07-12T03:35:28.895Z,97.50
2017-07-12T03:37:56.436Z,97.50
2017-07-12T03:40:24.007Z,97.60
2017-07-12T03:42:51.587Z,97.60
2017-07-12T03:45:19.161Z,97.30
2017-07-12T03:47:46.700Z,97.40
2017-07-12T03:50:14.270Z,97.50
2017-07-12T03:52:41.806Z,97.70
2017-07-12T03:55:09.361Z,97.50
2017-07-12T03:57:36.908Z,97.70
2017-07-12T04:00:04.856Z,97.70
2017-07-12T04:02:32.404Z,97.70
2017-07-12T04:04:59.977Z,97.60
2017-07-12T04:07:27.515Z,97.90
2017-07-12T04:09:55.103Z,98.00
2017-07-12T04:12:23.959Z,98.00
2017-07-12T04:14:51.553Z,97.80
2017-07-12T04:17:19.089Z,97.80
2017-07-12T04:19:46.706Z,98.00
2017-07-12T04:22:14.248Z,97.90
2017-07-12T04:24:41.805Z,97.80
2017-07-12T04:27:09.776Z,98.00
2017-07-12T04:29:37.347Z,98.00
2017-07-12T04:32:04.871Z,98.00
2017-07-12T04:34:32.450Z,98.10
2017-07-12T04:37:00.011Z,98.30
2017-07-12T04:39:27.618Z,98.40
2017-07-12T04:41:55.179Z,98.40
2017-07-12T04:44:22.736Z,98.20
2017-07-12T04:46:50.293Z,98.20
2017-07-12T04:49:17.839Z,98.40
2017-07-12T04:51:45.398Z,98.50
2017-07-12T04:54:12.929Z,98.50
2017-07-12T04:56:40.498Z,98.70
2017-07-12T04:59:08.025Z,99.00
2017-07-12T05:01:35.618Z,98.90
2017-07-12T05:04:03.169Z,98.80
2017-07-12T05:06:30.731Z,98.60
2017-07-12T05:08:58.290Z,98.70
2017-07-12T05:11:25.855Z,98.60
2017-07-12T05:13:53.399Z,98.40
2017-07-12T05:16:20.962Z,98.60
2017-07-12T05:18:48.506Z,98.50
2017-07-12T05:21:16.094Z,98.70
2017-07-12T05:23:43.642Z,98.80
2017-07-12T05:26:11.206Z,98.80
2017-07-12T05:28:38.740Z,98.80
2017-07-12T05:31:06.301Z,98.80
2017-07-12T05:33:33.849Z,99.00
2017-07-12T05:36:01.414Z,98.80
2017-07-12T05:38:28.963Z,98.50
2017-07-12T05:40:56.569Z,98.60
2017-07-12T05:43:24.100Z,98.70
2017-07-12T05:45:51.685Z,99.20
2017-07-12T05:48:22.480Z,99.20
2017-07-12T05:50:50.037Z,99.00
2017-07-12T05:53:17.586Z,99.00
2017-07-12T05:55:45.572Z,99.10
2017-07-12T05:58:13.128Z,99.00
2017-07-12T06:00:40.683Z,99.20
2017-07-12T06:03:08.215Z,98.90
2017-07-12T06:05:35.784Z,99.00
2017-07-12T06:08:03.327Z,99.10
2017-07-12T06:10:30.861Z,99.00
2017-07-12T06:12:58.445Z,99.10
2017-07-12T06:15:25.995Z,98.90
2017-07-12T06:17:53.572Z,99.00
2017-07-12T06:20:21.713Z,99.10
2017-07-12T06:22:49.302Z,98.80
2017-07-12T06:25:16.835Z,98.30
2017-07-12T06:27:44.402Z,98.10
2017-07-12T06:30:11.954Z,98.50
2017-07-12T06:32:39.525Z,98.40
2017-07-12T06:35:07.072Z,98.50
2017-07-12T06:37:34.653Z,98.60
2017-07-12T06:40:02.219Z,99.00
2017-07-12T06:42:30.179Z,99.20
2017-07-12T06:44:57.726Z,99.20
2017-07-12T06:47:25.289Z,99.40
2017-07-12T06:49:52.813Z,99.20
2017-07-12T06:52:20.399Z,99.30
2017-07-12T06:54:47.949Z,99.10
2017-07-12T06:57:15.594Z,99.00
2017-07-12T06:59:43.137Z,99.10
2017-07-12T07:02:10.723Z,99.00
2017-07-12T07:04:38.267Z,98.90
2017-07-12T07:07:05.843Z,98.70
2017-07-12T07:09:33.386Z,99.00
2017-07-12T07:12:00.949Z,99.00
2017-07-12T07:14:28.501Z,99.00
2017-07-12T07:16:56.079Z,99.00
2017-07-12T07:19:23.633Z,98.70
2017-07-12T07:21:51.202Z,98.30
2017-07-12T07:24:18.741Z,98.40
2017-07-12T07:26:46.314Z,98.70
2017-07-12T07:29:13.854Z,98.50
2017-07-12T07:31:41.434Z,98.70
2017-07-12T07:34:09.034Z,98.50
2017-07-12T07:36:36.594Z,98.60
2017-07-12T07:39:04.136Z,98.80
2017-07-12T07:41:31.703Z,98.30
2017-07-12T07:43:59.258Z,98.70
2017-07-12T07:46:26.829Z,98.60
2017-07-12T07:48:54.408Z,98.60
2017-07-12T07:51:21.948Z,98.60
2017-07-12T07:53:49.515Z,98.40
2017-07-12T07:56:17.060Z,98.40
2017-07-12T07:58:45.021Z,98.40
2017-07-12T08:01:12.963Z,98.90
2017-07-12T08:03:40.535Z,98.90
2017-07-12T08:06:08.080Z,99.00
2017-07-12T08:08:35.640Z,99.10
2017-07-12T08:11:03.179Z,99.10
2017-07-12T08:13:30.752Z,99.00
2017-07-12T08:15:58.344Z,98.70
2017-07-12T08:18:26.374Z,98.70
2017-07-12T08:20:53.936Z,98.60
2017-07-12T08:23:22.275Z,98.50
2017-07-12T08:25:49.824Z,99.00
2017-07-12T08:28:17.403Z,99.10
2017-07-12T08:30:44.955Z,98.90
2017-07-12T08:33:12.538Z,99.00
2017-07-12T08:35:40.070Z,98.80
2017-07-12T08:38:07.634Z,98.90
2017-07-12T08:40:35.189Z,99.00
2017-07-12T08:43:02.761Z,99.30
2017-07-12T08:45:30.288Z,99.40
2017-07-12T08:47:57.900Z,99.40
2017-07-12T08:50:25.475Z,99.10
2017-07-12T08:52:53.051Z,98.90
2017-07-12T08:55:20.591Z,98.90
2017-07-12T08:57:48.145Z,98.90
2017-07-12T09:00:15.680Z,99.10
2017-07-12T09:02:43.246Z,98.90
2017-07-12T09:05:10.901Z,98.70
2017-07-12T09:07:38.469Z,99.00
2017-07-12T09:10:06.020Z,99.30
2017-07-12T09:12:33.576Z,99.30
2017-07-12T09:15:01.093Z,99.30
2017-07-12T09:17:28.663Z,99.30
2017-07-12T09:19:56.189Z,99.30
2017-07-12T09:22:24.116Z,99.10
2017-07-12T09:34:42.366Z,99.10
2017-07-12T09:37:09.945Z,99.30
2017-07-12T09:39:37.501Z,99.30
2017-07-12T09:42:05.123Z,99.30
2017-07-12T09:44:32.681Z,99.30
2017-07-12T09:47:00.218Z,99.50
2017-07-12T09:49:27.856Z,99.10
2017-07-12T09:51:55.519Z,99.10
2017-07-12T09:54:23.115Z,99.00
2017-07-12T09:56:50.674Z,98.90
2017-07-12T09:59:18.319Z,99.10
2017-07-12T10:01:45.871Z,99.00
2017-07-12T10:04:14.259Z,99.10
2017-07-12T10:06:41.875Z,99.10
2017-07-12T10:09:09.412Z,99.30
2017-07-12T10:11:36.973Z,99.30
2017-07-12T10:14:04.564Z,99.50
2017-07-12T10:16:32.146Z,99.60
2017-07-12T10:18:59.678Z,99.30
2017-07-12T10:21:27.250Z,99.40
2017-07-12T10:23:54.835Z,99.00
2017-07-12T10:26:23.712Z,99.10
2017-07-12T10:28:51.324Z,99.00
2017-07-12T10:31:18.893Z,99.00
2017-07-12T10:33:46.464Z,99.10
2017-07-12T10:36:14.016Z,99.00
2017-07-12T10:38:41.595Z,99.00
2017-07-12T10:41:09.263Z,98.90
2017-07-12T10:43:36.807Z,99.10
2017-07-12T10:46:04.394Z,98.90
2017-07-12T10:48:31.935Z,99.00
2017-07-12T10:50:59.539Z,98.70
2017-07-12T10:53:27.104Z,99.20
2017-07-12T10:55:54.681Z,98.90
2017-07-12T10:58:23.442Z,99.00
2017-07-12T11:00:51.567Z,99.00
2017-07-12T11:03:19.125Z,99.20
2017-07-12T11:05:46.725Z,99.50
2017-07-12T11:08:14.285Z,99.40
2017-07-12T11:10:41.831Z,99.40
2017-07-12T11:13:09.373Z,99.50
2017-07-12T11:15:36.984Z,99.50
2017-07-12T11:18:04.548Z,99.30
2017-07-12T11:20:32.156Z,99.30
2017-07-12T11:22:59.705Z,99.10
2017-07-12T11:25:27.256Z,99.00
2017-07-12T11:27:54.802Z,99.00
2017-07-12T11:30:22.405Z,99.10
2017-07-12T11:32:50.350Z,99.40
2017-07-12T11:35:17.880Z,99.40
2017-07-12T11:37:45.522Z,99.10
2017-07-12T11:40:13.167Z,99.50
2017-07-12T11:42:40.752Z,99.40
2017-07-12T11:45:10.481Z,99.50
2017-07-12T11:47:38.031Z,99.30
2017-07-12T11:50:05.604Z,99.30
2017-07-12T11:52:33.149Z,99.50
2017-07-12T11:55:00.738Z,98.90
2017-07-12T11:57:28.308Z,98.70
2017-07-12T11:59:55.877Z,99.00
2017-07-12T12:02:23.487Z,98.80
2017-07-12T12:04:51.570Z,99.20
2017-07-12T12:07:19.174Z,99.00
2017-07-12T12:09:47.119Z,99.20
2017-07-12T12:12:14.697Z,99.20
2017-07-12T12:14:42.284Z,99.40
2017-07-12T12:17:09.863Z,99.20
2017-07-12T12:19:37.426Z,99.20
2017-07-12T12:22:05.021Z,99.50
2017-07-12T12:24:32.593Z,99.30
2017-07-12T12:27:00.143Z,99.40
2017-07-12T12:29:27.704Z,99.50
2017-07-12T12:31:55.256Z,99.10
2017-07-12T12:34:24.049Z,99.40
2017-07-12T12:36:53.029Z,94.50
2017-07-12T12:39:20.592Z,94.60
2017-07-12T12:41:48.204Z,96.40
2017-07-12T12:44:15.757Z,97.40
2017-07-12T12:46:43.317Z,98.10
2017-07-12T12:49:10.880Z,98.60
2017-07-12T12:51:38.511Z,98.90
2017-07-12T12:54:06.104Z,98.70
2017-07-12T12:56:33.642Z,98.90
2017-07-12T12:59:01.339Z,98.60
2017-07-12T13:01:28.995Z,99.00
2017-07-12T13:03:56.558Z,98.00
2017-07-12T13:06:24.092Z,98.20
2017-07-12T13:08:51.665Z,98.80
2017-07-12T13:11:19.208Z,98.80
2017-07-12T13:13:46.772Z,98.70
2017-07-12T13:16:14.352Z,98.40
2017-07-12T13:18:41.910Z,98.00
2017-07-12T13:21:09.484Z,98.20
2017-07-12T13:23:37.094Z,98.40
2017-07-12T13:26:04.707Z,98.40
2017-07-12T13:28:32.227Z,98.10
2017-07-12T13:30:59.809Z,98.70
2017-07-12T13:33:27.375Z,98.10
2017-07-12T13:35:54.949Z,98.10
2017-07-12T13:38:22.653Z,98.20
2017-07-12T13:40:50.226Z,97.80
2017-07-12T13:43:17.786Z,98.10
2017-07-12T13:45:45.350Z,98.20
2017-07-12T13:48:12.929Z,98.90
2017-07-12T13:50:40.535Z,96.90
2017-07-12T13:53:08.144Z,97.70
2017-07-12T13:55:35.760Z,98.20
2017-07-12T13:58:03.445Z,97.70
2017-07-12T14:00:31.078Z,97.50
2017-07-12T14:02:58.819Z,97.00
2017-07-12T14:05:26.386Z,97.40
2017-07-12T14:07:54.353Z,97.90
2017-07-12T14:10:22.322Z,98.20
2017-07-12T14:12:49.933Z,98.10
2017-07-12T14:15:17.664Z,97.40
2017-07-12T14:17:45.247Z,98.10
2017-07-12T14:20:12.848Z,99.20
2017-07-12T14:22:40.429Z,99.90
2017-07-12T14:25:08.022Z,97.60
2017-07-12T14:27:35.591Z,97.70
2017-07-12T14:30:03.198Z,97.40
2017-07-12T14:32:30.760Z,96.10
2017-07-12T14:34:58.742Z,96.30
2017-07-12T14:37:26.705Z,96.90
2017-07-12T14:39:54.245Z,96.90
2017-07-12T14:42:22.289Z,97.20
2017-07-12T14:44:51.687Z,97.20
2017-07-12T14:47:19.257Z,97.00
2017-07-12T14:49:46.846Z,96.60
2017-07-12T14:52:14.479Z,96.90
2017-07-12T14:54:42.016Z,96.40
2017-07-12T14:57:09.636Z,96.70
2017-07-12T14:59:37.242Z,97.20
2017-07-12T15:02:04.853Z,96.90
2017-07-12T15:04:32.488Z,97.80
2017-07-12T15:07:00.044Z,97.20
2017-07-12T15:09:27.648Z,97.50
2017-07-12T15:11:55.197Z,97.40
2017-07-12T15:14:24.528Z,96.80
2017-07-12T15:16:52.140Z,97.10
2017-07-12T15:19:20.116Z,96.80
2017-07-12T15:21:47.688Z,96.80
2017-07-12T15:24:15.280Z,96.00
2017-07-12T15:26:42.886Z,96.10
2017-07-12T15:29:10.877Z,96.20
2017-07-12T15:31:38.435Z,96.20
2017-07-12T15:34:05.998Z,95.90
2017-07-12T15:36:33.549Z,96.90
2017-07-12T15:39:01.258Z,94.80
2017-07-12T15:41:28.836Z,95.70
2017-07-12T15:43:56.442Z,96.10
2017-07-12T15:46:24.021Z,94.60
2017-07-12T15:48:51.588Z,95.80
2017-07-12T15:51:19.169Z,95.20
2017-07-12T15:53:46.763Z,92.80
2017-07-12T15:56:14.390Z,93.40
2017-07-12T15:58:41.953Z,93.50
2017-07-12T16:01:09.584Z,93.80
2017-07-12T16:03:37.170Z,93.40
2017-07-12T16:06:04.749Z,94.40
2017-07-12T16:08:32.445Z,95.20
2017-07-12T16:10:59.933Z,94.50
2017-07-12T16:13:27.515Z,94.90
2017-07-12T16:15:55.501Z,94.30
2017-07-12T16:18:23.080Z,94.30
2017-07-12T16:20:50.655Z,95.20
2017-07-12T16:23:18.193Z,95.10
2017-07-12T16:25:45.964Z,94.80
2017-07-12T16:28:13.492Z,92.30
2017-07-12T16:30:41.061Z,93.20
2017-07-12T16:33:08.628Z,93.50
2017-07-12T16:35:36.228Z,93.30
2017-07-12T16:38:03.809Z,93.60
2017-07-12T16:40:31.385Z,93.80
2017-07-12T16:42:59.046Z,92.90
2017-07-12T16:45:26.670Z,93.50
2017-07-12T16:47:54.235Z,93.90
2017-07-12T16:50:21.878Z,93.70
2017-07-12T16:52:49.486Z,94.70
2017-07-12T16:55:17.065Z,94.00
2017-07-12T16:57:44.636Z,94.50
2017-07-12T17:00:12.238Z,94.70
2017-07-12T17:02:39.883Z,95.40
2017-07-12T17:05:07.499Z,94.60
2017-07-12T17:07:35.066Z,95.00
2017-07-12T17:10:02.662Z,94.40
2017-07-12T17:12:30.314Z,95.50
2017-07-12T17:14:57.857Z,95.00
2017-07-12T17:17:25.404Z,94.90
2017-07-12T17:19:53.847Z,95.40
2017-07-12T17:22:22.274Z,94.70
2017-07-12T17:24:50.611Z,94.70
2017-07-12T17:27:18.548Z,95.90
2017-07-12T17:29:46.263Z,95.90
2017-07-12T17:32:13.822Z,94.50
2017-07-12T17:34:41.368Z,94.60
2017-07-12T17:37:08.908Z,94.00
2017-07-12T17:39:36.440Z,94.40
2017-07-12T17:42:04.000Z,95.70
2017-07-12T17:44:31.618Z,94.20
2017-07-12T17:46:59.198Z,93.70
2017-07-12T17:49:26.868Z,92.90
2017-07-12T17:51:54.435Z,93.10
2017-07-12T17:54:22.022Z,92.80
2017-07-12T17:56:49.567Z,92.90
2017-07-12T17:59:17.151Z,94.40
2017-07-12T18:01:45.076Z,94.30
2017-07-12T18:04:12.738Z,94.30
2017-07-12T18:06:40.286Z,93.40
2017-07-12T18:09:07.862Z,93.40
2017-07-12T18:11:35.430Z,93.90
2017-07-12T18:14:03.079Z,94.40
2017-07-12T18:16:30.730Z,93.30
2017-07-12T18:18:58.270Z,94.00
2017-07-12T18:21:25.827Z,94.90
2017-07-12T18:23:53.380Z,92.60
2017-07-12T18:26:20.917Z,92.50
2017-07-12T18:28:48.502Z,93.00
2017-07-12T18:31:16.084Z,93.30
2017-07-12T18:33:43.616Z,93.10
2017-07-12T18:36:11.215Z,94.10
2017-07-12T18:38:38.867Z,93.20
2017-07-12T18:41:06.429Z,93.70
2017-07-12T18:43:33.987Z,94.40
2017-07-12T18:46:01.550Z,95.20
2017-07-12T18:48:29.124Z,95.10
2017-07-12T18:50:56.704Z,95.70
2017-07-12T18:53:24.314Z,94.70
2017-07-12T18:55:52.037Z,94.40
2017-07-12T18:58:21.916Z,94.30
2017-07-12T19:00:50.128Z,93.50
2017-07-12T19:03:17.748Z,93.20
2017-07-12T19:05:45.396Z,93.30
2017-07-12T19:08:12.967Z,93.80
2017-07-12T19:10:40.734Z,93.30
2017-07-12T19:13:08.264Z,92.00
2017-07-12T19:15:36.889Z,92.30
2017-07-12T19:18:04.498Z,90.60
2017-07-12T19:20:32.061Z,92.00
2017-07-12T19:22:59.673Z,91.50
2017-07-12T19:25:27.646Z,91.20
2017-07-12T19:27:55.232Z,91.10
2017-07-12T19:30:22.838Z,92.50
2017-07-12T19:32:50.432Z,92.20
2017-07-12T19:35:18.633Z,93.30
2017-07-12T19:37:46.849Z,92.50
2017-07-12T19:40:14.506Z,92.60
2017-07-12T19:42:42.115Z,93.40
2017-07-12T19:45:09.749Z,93.20
2017-07-12T19:47:37.376Z,92.60
2017-07-12T19:50:11.368Z,93.40
2017-07-12T19:52:38.946Z,93.60
2017-07-12T19:55:06.482Z,93.90
2017-07-12T19:57:34.031Z,94.10
2017-07-12T20:00:01.584Z,94.00
2017-07-12T20:02:29.145Z,94.70
2017-07-12T20:04:56.691Z,94.60
2017-07-12T20:07:24.225Z,94.60
2017-07-12T20:09:52.217Z,94.50
2017-07-12T20:12:19.761Z,94.50
2017-07-12T20:14:47.378Z,94.30
2017-07-12T20:17:14.932Z,94.50
2017-07-12T20:19:42.497Z,94.30
2017-07-12T20:22:10.047Z,94.20
2017-07-12T20:24:37.626Z,94.90
2017-07-12T20:27:05.189Z,94.70
2017-07-12T20:29:32.730Z,94.60
2017-07-12T20:32:00.261Z,94.60
2017-07-12T20:34:27.828Z,94.60
2017-07-12T20:36:55.352Z,94.70
2017-07-12T20:39:22.913Z,94.60
2017-07-12T20:41:50.449Z,95.20
2017-07-12T20:44:18.013Z,95.50
2017-07-12T20:46:45.949Z,94.80
2017-07-12T20:49:13.482Z,94.80
2017-07-12T20:51:41.120Z,94.70
2017-07-12T20:54:08.656Z,94.80
2017-07-12T20:56:36.212Z,94.90
2017-07-12T20:59:03.748Z,94.60
2017-07-12T21:01:33.300Z,94.30
2017-07-12T21:04:00.839Z,93.80
2017-07-12T21:06:28.388Z,94.70
2017-07-12T21:08:55.937Z,94.90
2017-07-12T21:11:23.487Z,94.80
2017-07-12T21:13:51.033Z,94.70
2017-07-12T21:16:18.594Z,95.10
2017-07-12T21:18:46.126Z,95.30
2017-07-12T21:21:13.720Z,95.20
2017-07-12T21:23:41.244Z,95.30
2017-07-12T21:26:08.792Z,95.60
2017-07-12T21:28:36.328Z,95.60
2017-07-12T21:31:03.870Z,96.00
2017-07-12T21:33:31.828Z,96.10
2017-07-12T21:35:59.763Z,96.00
2017-07-12T21:38:27.327Z,96.10
2017-07-12T21:40:55.095Z,96.20
2017-07-12T21:43:22.693Z,96.00
2017-07-12T21:45:50.647Z,96.10
2017-07-12T21:48:18.585Z,96.20
2017-07-12T21:50:46.155Z,96.20
2017-07-12T21:53:31.344Z,95.90
2017-07-12T21:56:16.963Z,95.60
2017-07-12T21:59:02.176Z,95.80
2017-07-12T22:01:47.340Z,95.50
2017-07-12T22:04:32.359Z,95.70
2017-07-12T22:07:17.536Z,96.20
2017-07-12T22:10:02.560Z,96.10
2017-07-12T22:12:47.545Z,96.20
2017-07-12T22:15:32.500Z,96.20
2017-07-12T22:18:17.860Z,96.10
2017-07-12T22:21:03.001Z,96.10
2017-07-12T22:23:48.282Z,95.90
2017-07-12T22:26:33.544Z,95.60
2017-07-12T22:29:18.705Z,96.10
2017-07-12T22:32:03.871Z,96.50
2017-07-12T22:34:48.929Z,96.90
2017-07-12T22:37:22.495Z,96.20
2017-07-12T22:39:55.728Z,96.20
2017-07-12T22:42:28.999Z,96.30
2017-07-12T22:44:56.565Z,96.00
2017-07-12T22:47:24.500Z,95.50
2017-07-12T22:49:52.043Z,95.60
2017-07-12T22:52:19.575Z,95.80
2017-07-12T22:54:47.104Z,96.00
2017-07-12T22:57:14.652Z,95.90
2017-07-12T22:59:42.190Z,95.80
2017-07-12T23:02:09.748Z,95.70
2017-07-12T23:04:37.318Z,95.50
2017-07-12T23:07:04.867Z,95.70
2017-07-12T23:09:32.393Z,95.50
2017-07-12T23:11:59.912Z,95.20
2017-07-12T23:14:27.460Z,95.40
2017-07-12T23:16:54.984Z,95.80
2017-07-12T23:19:22.519Z,95.10
2017-07-12T23:21:50.051Z,94.40
2017-07-12T23:24:17.604Z,94.50
2017-07-12T23:26:45.138Z,94.00
2017-07-12T23:29:12.677Z,94.90
2017-07-12T23:31:40.211Z,95.30
2017-07-12T23:34:07.743Z,95.20
2017-07-12T23:36:35.700Z,95.70
2017-07-12T23:39:15.817Z,95.70
2017-07-12T23:41:43.352Z,95.90
2017-07-12T23:44:10.876Z,96.10
2017-07-12T23:46:38.811Z,95.90
2017-07-12T23:49:06.355Z,95.90
2017-07-12T23:51:33.890Z,95.70
2017-07-12T23:54:01.440Z,95.60
2017-07-12T23:56:28.994Z,95.90
2017-07-12T23:58:56.526Z,95.90
